sensor_id;sensor_type;location;lat;lon;timestamp;pressure;altitude;pressure_sealevel;temperature;humidity
48796;BME280;34607;48.520;-1.330;2022-08-01T00:02:11;100621.53;;;20.12;100.00
48796;BME280;34607;48.520;-1.330;2022-08-01T00:04:38;100624.13;;;20.14;100.00
48796;BME280;34607;48.520;-1.330;2022-08-01T00:07:05;100624.03;;;20.18;100.00
48796;BME280;34607;48.520;-1.330;2022-08-01T00:09:33;100617.84;;;20.21;100.00
48796;BME280;34607;48.520;-1.330;2022-08-01T00:12:00;100621.22;;;20.28;100.00
48796;BME280;34607;48.520;-1.330;2022-08-01T00:14:27;100621.25;;;20.26;100.00
48796;BME280;34607;48.520;-1.330;2022-08-01T00:16:54;100622.41;;;20.11;100.00
48796;BME280;34607;48.520;-1.330;2022-08-01T00:19:23;100621.66;;;20.05;100.00
48796;BME280;34607;48.520;-1.330;2022-08-01T00:21:51;100620.81;;;20.02;100.00
48796;BME280;34607;48.520;-1.330;2022-08-01T00:24:18;100621.69;;;20.03;100.00
48796;BME280;34607;48.520;-1.330;2022-08-01T00:26:45;100618.25;;;19.99;100.00
48796;BME280;34607;48.520;-1.330;2022-08-01T00:29:12;100615.78;;;19.92;100.00
48796;BME280;34607;48.520;-1.330;2022-08-01T00:31:39;100619.31;;;19.89;100.00
48796;BME280;34607;48.520;-1.330;2022-08-01T00:34:06;100612.34;;;19.87;100.00
48796;BME280;34607;48.520;-1.330;2022-08-01T00:36:35;100609.88;;;19.77;100.00
48796;BME280;34607;48.520;-1.330;2022-08-01T00:39:02;100611.63;;;19.78;100.00
48796;BME280;34607;48.520;-1.330;2022-08-01T00:41:29;100625.63;;;19.79;100.00
48796;BME280;34607;48.520;-1.330;2022-08-01T00:43:56;100616.00;;;19.79;100.00
48796;BME280;34607;48.520;-1.330;2022-08-01T00:46:23;100609.84;;;19.79;100.00
48796;BME280;34607;48.520;-1.330;2022-08-01T00:48:50;100606.41;;;19.74;100.00
48796;BME280;34607;48.520;-1.330;2022-08-01T00:51:18;100592.56;;;19.64;100.00
48796;BME280;34607;48.520;-1.330;2022-08-01T00:53:47;100605.53;;;19.73;100.00
48796;BME280;34607;48.520;-1.330;2022-08-01T00:56:15;100602.22;;;19.62;100.00
48796;BME280;34607;48.520;-1.330;2022-08-01T00:58:43;100608.31;;;19.65;100.00
48796;BME280;34607;48.520;-1.330;2022-08-01T01:01:10;100604.81;;;19.63;100.00
48796;BME280;34607;48.520;-1.330;2022-08-01T01:03:37;100606.47;;;19.71;100.00
48796;BME280;34607;48.520;-1.330;2022-08-01T01:06:14;100604.69;;;19.76;100.00
48796;BME280;34607;48.520;-1.330;2022-08-01T01:08:55;100605.53;;;19.73;100.00
48796;BME280;34607;48.520;-1.330;2022-08-01T01:11:29;100605.63;;;19.67;100.00
48796;BME280;34607;48.520;-1.330;2022-08-01T01:14:03;100601.28;;;19.68;100.00
48796;BME280;34607;48.520;-1.330;2022-08-01T01:16:33;100582.22;;;19.55;100.00
48796;BME280;34607;48.520;-1.330;2022-08-01T01:19:08;100602.16;;;19.67;100.00
48796;BME280;34607;48.520;-1.330;2022-08-01T01:22:08;100596.06;;;19.64;100.00
48796;BME280;34607;48.520;-1.330;2022-08-01T01:24:46;100595.22;;;19.62;100.00
48796;BME280;34607;48.520;-1.330;2022-08-01T01:27:24;100587.44;;;19.56;100.00
48796;BME280;34607;48.520;-1.330;2022-08-01T01:29:58;100591.81;;;19.57;100.00
48796;BME280;34607;48.520;-1.330;2022-08-01T01:32:30;100590.19;;;19.50;100.00
48796;BME280;34607;48.520;-1.330;2022-08-01T01:34:59;100589.81;;;19.17;100.00
48796;BME280;34607;48.520;-1.330;2022-08-01T01:37:27;100580.19;;;19.18;100.00
48796;BME280;34607;48.520;-1.330;2022-08-01T01:39:55;100577.34;;;19.32;100.00
48796;BME280;34607;48.520;-1.330;2022-08-01T01:42:24;100591.13;;;19.46;100.00
48796;BME280;34607;48.520;-1.330;2022-08-01T01:44:53;100585.75;;;19.54;100.00
48796;BME280;34607;48.520;-1.330;2022-08-01T01:47:23;100589.09;;;19.62;100.00
48796;BME280;34607;48.520;-1.330;2022-08-01T01:49:54;100585.63;;;19.60;100.00
48796;BME280;34607;48.520;-1.330;2022-08-01T01:52:23;100566.56;;;19.50;100.00
48796;BME280;34607;48.520;-1.330;2022-08-01T01:54:52;100585.63;;;19.60;100.00
48796;BME280;34607;48.520;-1.330;2022-08-01T01:57:21;100581.31;;;19.57;100.00
48796;BME280;34607;48.520;-1.330;2022-08-01T01:59:49;100571.69;;;19.55;100.00
48796;BME280;34607;48.520;-1.330;2022-08-01T02:02:18;100576.88;;;19.61;100.00
48796;BME280;34607;48.520;-1.330;2022-08-01T02:04:48;100559.50;;;19.52;100.00
48796;BME280;34607;48.520;-1.330;2022-08-01T02:07:19;100577.63;;;19.68;100.00
48796;BME280;34607;48.520;-1.330;2022-08-01T02:09:48;100580.09;;;19.77;100.00
48796;BME280;34607;48.520;-1.330;2022-08-01T02:12:19;100582.63;;;19.83;100.00
48796;BME280;34607;48.520;-1.330;2022-08-01T02:14:48;100582.69;;;19.80;100.00
48796;BME280;34607;48.520;-1.330;2022-08-01T02:17:18;100575.91;;;19.65;100.00
48796;BME280;34607;48.520;-1.330;2022-08-01T02:19:48;100568.75;;;19.75;100.00
48796;BME280;34607;48.520;-1.330;2022-08-01T02:22:19;100573.94;;;19.79;100.00
48796;BME280;34607;48.520;-1.330;2022-08-01T02:24:50;100551.34;;;19.68;100.00
48796;BME280;34607;48.520;-1.330;2022-08-01T02:27:24;100575.69;;;19.79;100.00
48796;BME280;34607;48.520;-1.330;2022-08-01T02:29:58;100567.00;;;19.74;100.00
48796;BME280;34607;48.520;-1.330;2022-08-01T02:32:28;100563.59;;;19.67;100.00
48796;BME280;34607;48.520;-1.330;2022-08-01T02:35:00;100567.09;;;19.69;100.00
48796;BME280;34607;48.520;-1.330;2022-08-01T02:37:32;100536.69;;;19.54;100.00
48796;BME280;34607;48.520;-1.330;2022-08-01T02:40:00;100532.19;;;19.62;99.95
48796;BME280;34607;48.520;-1.330;2022-08-01T02:42:28;100551.09;;;19.83;99.62
48796;BME280;34607;48.520;-1.330;2022-08-01T02:44:57;100570.31;;;19.87;99.66
48796;BME280;34607;48.520;-1.330;2022-08-01T02:47:26;100565.97;;;19.84;100.00
48796;BME280;34607;48.520;-1.330;2022-08-01T02:49:58;100568.50;;;19.89;99.70
48796;BME280;34607;48.520;-1.330;2022-08-01T02:52:27;100570.34;;;19.83;100.00
48796;BME280;34607;48.520;-1.330;2022-08-01T02:54:56;100568.53;;;19.87;100.00
48796;BME280;34607;48.520;-1.330;2022-08-01T02:57:24;100558.06;;;19.84;100.00
48796;BME280;34607;48.520;-1.330;2022-08-01T02:59:54;100567.75;;;19.82;100.00
48796;BME280;34607;48.520;-1.330;2022-08-01T03:02:23;100568.75;;;19.76;100.00
48796;BME280;34607;48.520;-1.330;2022-08-01T03:04:51;100574.88;;;19.74;100.00
48796;BME280;34607;48.520;-1.330;2022-08-01T03:07:21;100571.38;;;19.73;100.00
48796;BME280;34607;48.520;-1.330;2022-08-01T03:09:50;100571.41;;;19.75;100.00
48796;BME280;34607;48.520;-1.330;2022-08-01T03:12:20;100547.03;;;19.63;100.00
48796;BME280;34607;48.520;-1.330;2022-08-01T03:14:51;100566.13;;;19.75;100.00
48796;BME280;34607;48.520;-1.330;2022-08-01T03:17:21;100562.66;;;19.74;100.00
48796;BME280;34607;48.520;-1.330;2022-08-01T03:19:49;100561.72;;;19.77;100.00
48796;BME280;34607;48.520;-1.330;2022-08-01T03:22:20;100561.72;;;19.77;100.00
48796;BME280;34607;48.520;-1.330;2022-08-01T03:24:51;100559.22;;;19.69;100.00
48796;BME280;34607;48.520;-1.330;2022-08-01T03:27:20;100559.19;;;19.71;100.00
48796;BME280;34607;48.520;-1.330;2022-08-01T03:29:49;100554.78;;;19.74;100.00
48796;BME280;34607;48.520;-1.330;2022-08-01T03:32:18;100555.69;;;19.69;100.00
48796;BME280;34607;48.520;-1.330;2022-08-01T03:34:46;100561.84;;;19.69;100.00
48796;BME280;34607;48.520;-1.330;2022-08-01T03:37:17;100565.25;;;19.76;100.00
48796;BME280;34607;48.520;-1.330;2022-08-01T03:39:55;100557.28;;;19.79;100.00
48796;BME280;34607;48.520;-1.330;2022-08-01T03:42:26;100553.00;;;19.75;100.00
48796;BME280;34607;48.520;-1.330;2022-08-01T03:44:58;100557.31;;;19.77;100.00
48796;BME280;34607;48.520;-1.330;2022-08-01T03:47:31;100562.66;;;19.73;100.00
48796;BME280;34607;48.520;-1.330;2022-08-01T03:50:00;100538.31;;;19.61;100.00
48796;BME280;34607;48.520;-1.330;2022-08-01T03:52:29;100559.09;;;19.74;100.00
48796;BME280;34607;48.520;-1.330;2022-08-01T03:55:01;100537.59;;;19.52;100.00
48796;BME280;34607;48.520;-1.330;2022-08-01T03:57:29;100552.38;;;19.60;100.00
48796;BME280;34607;48.520;-1.330;2022-08-01T03:59:57;100502.94;;;19.31;100.00
48796;BME280;34607;48.520;-1.330;2022-08-01T04:02:25;100556.63;;;19.66;100.00
48796;BME280;34607;48.520;-1.330;2022-08-01T04:04:53;100554.09;;;19.60;100.00
48796;BME280;34607;48.520;-1.330;2022-08-01T04:07:24;100557.56;;;19.62;100.00
48796;BME280;34607;48.520;-1.330;2022-08-01T04:09:52;100545.38;;;19.58;100.00
48796;BME280;34607;48.520;-1.330;2022-08-01T04:12:21;100546.31;;;19.55;100.00
48796;BME280;34607;48.520;-1.330;2022-08-01T04:14:48;100530.72;;;19.46;100.00
48796;BME280;34607;48.520;-1.330;2022-08-01T04:17:15;100554.13;;;19.58;100.00
48796;BME280;34607;48.520;-1.330;2022-08-01T04:19:42;100555.88;;;19.59;100.00
48796;BME280;34607;48.520;-1.330;2022-08-01T04:22:11;100543.59;;;19.60;100.00
48796;BME280;34607;48.520;-1.330;2022-08-01T04:24:41;100553.88;;;19.72;100.00
48796;BME280;34607;48.520;-1.330;2022-08-01T04:27:12;100554.75;;;19.76;100.00
48796;BME280;34607;48.520;-1.330;2022-08-01T04:29:42;100553.84;;;19.75;100.00
48796;BME280;34607;48.520;-1.330;2022-08-01T04:32:12;100545.16;;;19.70;100.00
48796;BME280;34607;48.520;-1.330;2022-08-01T04:34:42;100550.38;;;19.75;100.00
48796;BME280;34607;48.520;-1.330;2022-08-01T04:37:13;100553.03;;;19.72;100.00
48796;BME280;34607;48.520;-1.330;2022-08-01T04:39:44;100506.25;;;19.44;100.00
48796;BME280;34607;48.520;-1.330;2022-08-01T04:42:14;100552.25;;;19.67;100.00
48796;BME280;34607;48.520;-1.330;2022-08-01T04:44:44;100547.91;;;19.64;100.00
48796;BME280;34607;48.520;-1.330;2022-08-01T04:47:11;100546.16;;;19.63;100.00
48796;BME280;34607;48.520;-1.330;2022-08-01T04:49:40;100552.47;;;19.54;100.00
48796;BME280;34607;48.520;-1.330;2022-08-01T04:52:07;100554.16;;;19.57;100.00
48796;BME280;34607;48.520;-1.330;2022-08-01T04:54:35;100565.63;;;19.53;100.00
48796;BME280;34607;48.520;-1.330;2022-08-01T04:57:04;100565.59;;;19.54;100.00
48796;BME280;34607;48.520;-1.330;2022-08-01T04:59:32;100556.94;;;19.49;100.00
48796;BME280;34607;48.520;-1.330;2022-08-01T05:02:12;100560.25;;;19.60;100.00
48796;BME280;34607;48.520;-1.330;2022-08-01T05:04:40;100541.94;;;19.54;100.00
48796;BME280;34607;48.520;-1.330;2022-08-01T05:07:09;100568.94;;;19.64;100.00
48796;BME280;34607;48.520;-1.330;2022-08-01T05:09:36;100561.16;;;19.56;100.00
48796;BME280;34607;48.520;-1.330;2022-08-01T05:12:05;100561.03;;;19.65;100.00
48796;BME280;34607;48.520;-1.330;2022-08-01T05:14:32;100563.56;;;19.69;100.00
48796;BME280;34607;48.520;-1.330;2022-08-01T05:17:00;100568.81;;;19.70;100.00
48796;BME280;34607;48.520;-1.330;2022-08-01T05:19:30;100575.84;;;19.70;100.00
48796;BME280;34607;48.520;-1.330;2022-08-01T05:21:57;100570.66;;;19.65;100.00
48796;BME280;34607;48.520;-1.330;2022-08-01T05:24:26;100580.13;;;19.74;100.00
48796;BME280;34607;48.520;-1.330;2022-08-01T05:26:54;100582.75;;;19.75;100.00
48796;BME280;34607;48.520;-1.330;2022-08-01T05:29:21;100592.41;;;19.75;100.00
48796;BME280;34607;48.520;-1.330;2022-08-01T05:31:48;100587.16;;;19.72;100.00
48796;BME280;34607;48.520;-1.330;2022-08-01T05:34:15;100590.63;;;19.74;100.00
48796;BME280;34607;48.520;-1.330;2022-08-01T05:36:44;100588.91;;;19.76;100.00
48796;BME280;34607;48.520;-1.330;2022-08-01T05:39:12;100573.13;;;19.76;100.00
48796;BME280;34607;48.520;-1.330;2022-08-01T05:41:39;100572.25;;;19.74;100.00
48796;BME280;34607;48.520;-1.330;2022-08-01T05:44:07;100568.75;;;19.76;100.00
48796;BME280;34607;48.520;-1.330;2022-08-01T05:46:34;100575.59;;;19.85;100.00
48796;BME280;34607;48.520;-1.330;2022-08-01T05:49:03;100579.72;;;19.98;100.00
48796;BME280;34607;48.520;-1.330;2022-08-01T05:51:31;100586.66;;;20.02;100.00
48796;BME280;34607;48.520;-1.330;2022-08-01T05:54:00;100564.03;;;19.94;100.00
48796;BME280;34607;48.520;-1.330;2022-08-01T05:56:28;100588.38;;;20.05;100.00
48796;BME280;34607;48.520;-1.330;2022-08-01T05:58:55;100589.34;;;19.98;100.00
48796;BME280;34607;48.520;-1.330;2022-08-01T06:01:22;100585.09;;;19.92;100.00
48796;BME280;34607;48.520;-1.330;2022-08-01T06:03:49;100591.16;;;19.94;100.00
48796;BME280;34607;48.520;-1.330;2022-08-01T06:06:16;100607.94;;;19.89;100.00
48796;BME280;34607;48.520;-1.330;2022-08-01T06:08:43;100601.22;;;19.71;100.00
48796;BME280;34607;48.520;-1.330;2022-08-01T06:11:11;100595.84;;;19.78;100.00
48796;BME280;34607;48.520;-1.330;2022-08-01T06:13:38;100583.66;;;19.76;100.00
48796;BME280;34607;48.520;-1.330;2022-08-01T06:16:06;100587.13;;;19.78;100.00
48796;BME280;34607;48.520;-1.330;2022-08-01T06:18:33;100593.28;;;19.72;100.00
48796;BME280;34607;48.520;-1.330;2022-08-01T06:21:00;100591.69;;;19.63;100.00
48796;BME280;34607;48.520;-1.330;2022-08-01T06:23:27;100580.25;;;19.68;100.00
48796;BME280;34607;48.520;-1.330;2022-08-01T06:25:54;100592.50;;;19.67;100.00
48796;BME280;34607;48.520;-1.330;2022-08-01T06:28:23;100600.44;;;19.65;100.00
48796;BME280;34607;48.520;-1.330;2022-08-01T06:30:50;100603.13;;;19.61;100.00
48796;BME280;34607;48.520;-1.330;2022-08-01T06:33:17;100593.47;;;19.63;100.00
48796;BME280;34607;48.520;-1.330;2022-08-01T06:35:44;100590.91;;;19.58;100.00
48796;BME280;34607;48.520;-1.330;2022-08-01T06:38:11;100595.28;;;19.58;100.00
48796;BME280;34607;48.520;-1.330;2022-08-01T06:40:38;100562.38;;;19.37;100.00
48796;BME280;34607;48.520;-1.330;2022-08-01T06:43:05;100591.72;;;19.62;100.00
48796;BME280;34607;48.520;-1.330;2022-08-01T06:45:34;100571.63;;;19.59;100.00
48796;BME280;34607;48.520;-1.330;2022-08-01T06:48:02;100602.09;;;19.70;100.00
48796;BME280;34607;48.520;-1.330;2022-08-01T06:50:29;100602.97;;;19.69;100.00
48796;BME280;34607;48.520;-1.330;2022-08-01T06:52:56;100590.75;;;19.68;100.00
48796;BME280;34607;48.520;-1.330;2022-08-01T06:55:24;100593.34;;;19.71;100.00
48796;BME280;34607;48.520;-1.330;2022-08-01T06:57:52;100597.69;;;19.72;100.00
48796;BME280;34607;48.520;-1.330;2022-08-01T07:00:20;100587.16;;;19.72;100.00
48796;BME280;34607;48.520;-1.330;2022-08-01T07:02:49;100594.00;;;19.83;100.00
48796;BME280;34607;48.520;-1.330;2022-08-01T07:05:16;100605.25;;;19.92;100.00
48796;BME280;34607;48.520;-1.330;2022-08-01T07:07:43;100606.06;;;19.95;100.00
48796;BME280;34607;48.520;-1.330;2022-08-01T07:10:12;100580.78;;;19.88;100.00
48796;BME280;34607;48.520;-1.330;2022-08-01T07:12:40;100606.66;;;20.10;100.00
48796;BME280;34607;48.520;-1.330;2022-08-01T07:15:09;100595.19;;;20.15;100.00
48796;BME280;34607;48.520;-1.330;2022-08-01T07:17:37;100527.56;;;19.74;100.00
48796;BME280;34607;48.520;-1.330;2022-08-01T07:20:08;100603.81;;;20.22;100.00
48796;BME280;34607;48.520;-1.330;2022-08-01T07:22:36;100610.00;;;20.18;100.00
48796;BME280;34607;48.520;-1.330;2022-08-01T07:25:04;100603.06;;;20.15;100.00
48796;BME280;34607;48.520;-1.330;2022-08-01T07:27:32;100606.63;;;20.11;100.00
48796;BME280;34607;48.520;-1.330;2022-08-01T07:29:59;100601.06;;;20.28;100.00
48796;BME280;34607;48.520;-1.330;2022-08-01T07:32:26;100595.75;;;20.31;100.00
48796;BME280;34607;48.520;-1.330;2022-08-01T07:34:54;100608.50;;;20.51;100.00
48796;BME280;34607;48.520;-1.330;2022-08-01T07:37:23;100610.19;;;20.54;100.00
48796;BME280;34607;48.520;-1.330;2022-08-01T07:39:51;100602.31;;;20.52;100.00
48796;BME280;34607;48.520;-1.330;2022-08-01T07:42:18;100607.41;;;20.63;99.65
48796;BME280;34607;48.520;-1.330;2022-08-01T07:44:45;100583.81;;;20.57;99.36
48796;BME280;34607;48.520;-1.330;2022-08-01T07:47:12;100620.06;;;20.86;99.14
48796;BME280;34607;48.520;-1.330;2022-08-01T07:49:39;100607.06;;;21.18;98.07
48796;BME280;34607;48.520;-1.330;2022-08-01T07:52:06;100607.88;;;21.57;97.03
48796;BME280;34607;48.520;-1.330;2022-08-01T07:54:35;100598.72;;;21.72;94.83
48796;BME280;34607;48.520;-1.330;2022-08-01T07:57:02;100614.97;;;21.89;94.01
48796;BME280;34607;48.520;-1.330;2022-08-01T07:59:30;100622.44;;;22.06;93.04
48796;BME280;34607;48.520;-1.330;2022-08-01T08:01:57;100616.59;;;21.95;93.08
48796;BME280;34607;48.520;-1.330;2022-08-01T08:04:24;100620.50;;;21.80;92.73
48796;BME280;34607;48.520;-1.330;2022-08-01T08:06:51;100614.53;;;21.72;93.28
48796;BME280;34607;48.520;-1.330;2022-08-01T08:09:18;100620.59;;;21.76;92.72
48796;BME280;34607;48.520;-1.330;2022-08-01T08:11:47;100621.94;;;21.58;92.43
48796;BME280;34607;48.520;-1.330;2022-08-01T08:14:14;100632.03;;;21.39;92.75
48796;BME280;34607;48.520;-1.330;2022-08-01T08:16:42;100631.47;;;21.24;93.22
48796;BME280;34607;48.520;-1.330;2022-08-01T08:19:09;100625.38;;;21.22;93.61
48796;BME280;34607;48.520;-1.330;2022-08-01T08:21:36;100621.97;;;21.19;93.97
48796;BME280;34607;48.520;-1.330;2022-08-01T08:24:03;100629.09;;;21.13;94.29
48796;BME280;34607;48.520;-1.330;2022-08-01T08:26:48;100635.47;;;21.03;94.55
48796;BME280;34607;48.520;-1.330;2022-08-01T08:29:15;100625.16;;;20.94;95.07
48796;BME280;34607;48.520;-1.330;2022-08-01T08:31:43;100626.94;;;20.92;94.73
48796;BME280;34607;48.520;-1.330;2022-08-01T08:34:10;100630.50;;;20.91;95.18
48796;BME280;34607;48.520;-1.330;2022-08-01T08:36:37;100624.50;;;20.84;94.84
48796;BME280;34607;48.520;-1.330;2022-08-01T08:39:05;100640.84;;;20.99;94.61
48796;BME280;34607;48.520;-1.330;2022-08-01T08:41:33;100632.13;;;20.97;94.67
48796;BME280;34607;48.520;-1.330;2022-08-01T08:44:02;100637.13;;;21.07;94.60
48796;BME280;34607;48.520;-1.330;2022-08-01T08:46:31;100639.75;;;21.07;94.26
48796;BME280;34607;48.520;-1.330;2022-08-01T08:49:00;100637.16;;;21.06;93.79
48796;BME280;34607;48.520;-1.330;2022-08-01T08:51:30;100645.19;;;21.01;94.06
48796;BME280;34607;48.520;-1.330;2022-08-01T08:53:57;100646.06;;;21.00;94.28
48796;BME280;34607;48.520;-1.330;2022-08-01T08:56:25;100649.63;;;20.99;93.67
48796;BME280;34607;48.520;-1.330;2022-08-01T08:58:55;100644.69;;;20.84;93.93
48796;BME280;34607;48.520;-1.330;2022-08-01T09:01:24;100657.56;;;20.98;93.83
48796;BME280;34607;48.520;-1.330;2022-08-01T09:03:53;100662.72;;;21.01;94.05
48796;BME280;34607;48.520;-1.330;2022-08-01T09:06:20;100663.56;;;21.04;94.23
48796;BME280;34607;48.520;-1.330;2022-08-01T09:08:47;100647.81;;;21.01;93.63
48796;BME280;34607;48.520;-1.330;2022-08-01T09:11:14;100654.78;;;21.02;93.44
48796;BME280;34607;48.520;-1.330;2022-08-01T09:13:41;100655.88;;;20.93;93.88
48796;BME280;34607;48.520;-1.330;2022-08-01T09:16:29;100642.09;;;20.82;94.09
48796;BME280;34607;48.520;-1.330;2022-08-01T09:19:07;100656.84;;;20.89;94.11
48796;BME280;34607;48.520;-1.330;2022-08-01T09:21:35;100643.81;;;20.83;94.29
48796;BME280;34607;48.520;-1.330;2022-08-01T09:24:02;100660.50;;;20.84;94.16
48796;BME280;34607;48.520;-1.330;2022-08-01T09:26:33;100663.19;;;20.79;94.67
48796;BME280;34607;48.520;-1.330;2022-08-01T09:29:06;100665.91;;;20.74;94.80
48796;BME280;34607;48.520;-1.330;2022-08-01T09:31:42;100663.19;;;20.81;94.91
48796;BME280;34607;48.520;-1.330;2022-08-01T09:34:09;100664.88;;;20.82;95.17
48796;BME280;34607;48.520;-1.330;2022-08-01T09:36:47;100664.22;;;20.73;95.33
48796;BME280;34607;48.520;-1.330;2022-08-01T09:39:25;100660.63;;;20.76;95.96
48796;BME280;34607;48.520;-1.330;2022-08-01T09:41:53;100645.81;;;20.72;95.60
48796;BME280;34607;48.520;-1.330;2022-08-01T09:44:36;100664.81;;;20.86;94.65
48796;BME280;34607;48.520;-1.330;2022-08-01T09:47:05;100659.53;;;20.86;94.58
48796;BME280;34607;48.520;-1.330;2022-08-01T09:49:34;100662.06;;;20.92;94.26
48796;BME280;34607;48.520;-1.330;2022-08-01T09:52:10;100660.50;;;20.82;94.12
48796;BME280;34607;48.520;-1.330;2022-08-01T09:54:38;100676.22;;;20.85;94.95
48796;BME280;34607;48.520;-1.330;2022-08-01T09:57:10;100672.72;;;20.85;93.76
48796;BME280;34607;48.520;-1.330;2022-08-01T09:59:40;100664.72;;;20.91;93.91
48796;BME280;34607;48.520;-1.330;2022-08-01T10:02:10;100673.34;;;20.98;93.88
48796;BME280;34607;48.520;-1.330;2022-08-01T10:04:49;100675.00;;;21.02;93.11
48796;BME280;34607;48.520;-1.330;2022-08-01T10:07:18;100667.81;;;21.10;93.15
48796;BME280;34607;48.520;-1.330;2022-08-01T10:09:46;100666.97;;;21.08;93.01
48796;BME280;34607;48.520;-1.330;2022-08-01T10:12:15;100653.22;;;20.95;92.90
48796;BME280;34607;48.520;-1.330;2022-08-01T10:14:44;100679.38;;;21.03;92.81
48796;BME280;34607;48.520;-1.330;2022-08-01T10:17:14;100685.41;;;21.08;92.94
48796;BME280;34607;48.520;-1.330;2022-08-01T10:19:42;100670.53;;;21.05;92.39
48796;BME280;34607;48.520;-1.330;2022-08-01T10:22:10;100676.78;;;21.01;92.51
48796;BME280;34607;48.520;-1.330;2022-08-01T10:24:40;100689.06;;;21.01;92.79
48796;BME280;34607;48.520;-1.330;2022-08-01T10:27:09;100697.78;;;21.04;92.46
48796;BME280;34607;48.520;-1.330;2022-08-01T10:29:41;100687.94;;;21.12;92.29
48796;BME280;34607;48.520;-1.330;2022-08-01T10:32:09;100679.84;;;21.22;91.68
48796;BME280;34607;48.520;-1.330;2022-08-01T10:34:38;100673.47;;;21.32;90.95
48796;BME280;34607;48.520;-1.330;2022-08-01T10:37:05;100661.13;;;21.34;90.49
48796;BME280;34607;48.520;-1.330;2022-08-01T10:39:34;100662.75;;;21.38;90.39
48796;BME280;34607;48.520;-1.330;2022-08-01T10:42:02;100631.31;;;21.32;89.74
48796;BME280;34607;48.520;-1.330;2022-08-01T10:44:30;100663.44;;;21.48;89.77
48796;BME280;34607;48.520;-1.330;2022-08-01T10:47:03;100667.19;;;21.38;90.05
48796;BME280;34607;48.520;-1.330;2022-08-01T10:49:34;100669.97;;;21.30;89.86
48796;BME280;34607;48.520;-1.330;2022-08-01T10:52:05;100673.53;;;21.29;89.89
48796;BME280;34607;48.520;-1.330;2022-08-01T10:54:38;100688.50;;;21.27;89.96
48796;BME280;34607;48.520;-1.330;2022-08-01T10:57:06;100686.69;;;21.29;90.41
48796;BME280;34607;48.520;-1.330;2022-08-01T10:59:34;100677.13;;;21.25;90.59
48796;BME280;34607;48.520;-1.330;2022-08-01T11:02:06;100658.84;;;21.19;90.95
48796;BME280;34607;48.520;-1.330;2022-08-01T11:04:41;100675.34;;;21.27;90.79
48796;BME280;34607;48.520;-1.330;2022-08-01T11:07:16;100671.84;;;21.25;90.85
48796;BME280;34607;48.520;-1.330;2022-08-01T11:09:46;100681.50;;;21.26;91.31
48796;BME280;34607;48.520;-1.330;2022-08-01T11:12:14;100668.44;;;21.20;91.29
48796;BME280;34607;48.520;-1.330;2022-08-01T11:15:18;100677.03;;;21.28;90.95
48796;BME280;34607;48.520;-1.330;2022-08-01T11:17:54;100676.72;;;21.42;91.01
48796;BME280;34607;48.520;-1.330;2022-08-01T11:20:23;100676.75;;;21.40;90.54
48796;BME280;34607;48.520;-1.330;2022-08-01T11:23:25;100672.47;;;21.36;90.23
48796;BME280;34607;48.520;-1.330;2022-08-01T11:26:20;100670.84;;;21.30;90.35
48796;BME280;34607;48.520;-1.330;2022-08-01T11:29:13;100676.47;;;21.15;91.13
48796;BME280;34607;48.520;-1.330;2022-08-01T11:31:40;100679.38;;;21.03;92.18
48796;BME280;34607;48.520;-1.330;2022-08-01T11:34:08;100676.75;;;21.03;92.84
48796;BME280;34607;48.520;-1.330;2022-08-01T11:36:35;100678.22;;;21.14;92.65
48796;BME280;34607;48.520;-1.330;2022-08-01T11:39:17;100679.53;;;21.36;92.48
48796;BME280;34607;48.520;-1.330;2022-08-01T11:41:45;100643.72;;;21.27;91.98
48796;BME280;34607;48.520;-1.330;2022-08-01T11:44:18;100660.44;;;21.63;91.90
48796;BME280;34607;48.520;-1.330;2022-08-01T11:49:31;100651.38;;;21.75;90.13
48796;BME280;34607;48.520;-1.330;2022-08-01T11:52:02;100659.72;;;21.93;89.29
48796;BME280;34607;48.520;-1.330;2022-08-01T11:54:33;100661.66;;;21.84;88.83
48796;BME280;34607;48.520;-1.330;2022-08-01T11:57:02;100651.84;;;21.91;89.81
48796;BME280;34607;48.520;-1.330;2022-08-01T11:59:35;100660.78;;;22.18;87.93
48796;BME280;34607;48.520;-1.330;2022-08-01T12:02:03;100661.56;;;22.22;87.49
48796;BME280;34607;48.520;-1.330;2022-08-01T12:04:48;100653.97;;;22.44;87.17
48796;BME280;34607;48.520;-1.330;2022-08-01T12:07:16;100665.19;;;22.82;86.26
48796;BME280;34607;48.520;-1.330;2022-08-01T12:09:45;100659.78;;;23.16;85.91
48796;BME280;34607;48.520;-1.330;2022-08-01T12:12:15;100638.44;;;23.51;84.16
48796;BME280;34607;48.520;-1.330;2022-08-01T12:14:44;100658.22;;;23.94;83.51
48796;BME280;34607;48.520;-1.330;2022-08-01T12:17:12;100658.91;;;24.24;81.80
48796;BME280;34607;48.520;-1.330;2022-08-01T12:19:40;100662.47;;;24.23;80.90
48796;BME280;34607;48.520;-1.330;2022-08-01T12:22:09;100662.84;;;24.12;81.02
48796;BME280;34607;48.520;-1.330;2022-08-01T12:24:37;100658.59;;;23.82;81.10
48796;BME280;34607;48.520;-1.330;2022-08-01T12:27:07;100653.50;;;23.75;81.33
48796;BME280;34607;48.520;-1.330;2022-08-01T12:29:37;100659.91;;;23.68;81.66
48796;BME280;34607;48.520;-1.330;2022-08-01T12:32:21;100654.25;;;23.52;81.76
48796;BME280;34607;48.520;-1.330;2022-08-01T12:34:48;100657.81;;;23.78;81.14
48796;BME280;34607;48.520;-1.330;2022-08-01T12:37:16;100653.75;;;23.68;81.57
48796;BME280;34607;48.520;-1.330;2022-08-01T12:39:43;100637.75;;;23.72;81.38
48796;BME280;34607;48.520;-1.330;2022-08-01T12:42:12;100656.72;;;23.59;81.32
48796;BME280;34607;48.520;-1.330;2022-08-01T12:44:40;100655.50;;;23.41;81.26
48796;BME280;34607;48.520;-1.330;2022-08-01T12:47:08;100631.19;;;23.31;81.46
48796;BME280;34607;48.520;-1.330;2022-08-01T12:49:36;100650.19;;;23.42;81.11